Time;durP1;ratioP1;P1;durP2;ratioP2;P2;SDS_P1;SDS_P2;PMS_P1;PMS_P2;Temp;Humidity;BMP_temperature;BMP_pressure;BME280_temperature;BME280_humidity;BME280_pressure;Samples;Min_cycle;Max_cycle;Signal;HPM_P1;HPM_P2
2023/07/16 00:01:43;;;;;;;9.07;4.38;;;;;;;;;;4975923;28;20081;-47
2023/07/16 00:04:09;;;;;;;8.52;4.00;;;;;;;;;;4974026;28;20049;-50
2023/07/16 00:06:34;;;;;;;12.45;4.57;;;;;;;;;;4978013;28;20073;-50
2023/07/16 00:09:00;;;;;;;11.07;4.85;;;;;;;;;;4971411;28;20043;-50
2023/07/16 00:11:25;;;;;;;7.45;3.90;;;;;;;;;;4975266;28;20396;-50
2023/07/16 00:13:50;;;;;;;11.23;4.18;;;;;;;;;;4967525;28;20043;-48
2023/07/16 00:16:16;;;;;;;13.85;4.57;;;;;;;;;;4976222;28;20027;-50
2023/07/16 00:18:44;;;;;;;8.15;4.10;;;;;;;;;;4978462;28;20050;-52
2023/07/16 00:21:09;;;;;;;10.60;4.60;;;;;;;;;;4963788;28;20063;-49
2023/07/16 00:23:35;;;;;;;13.20;4.55;;;;;;;;;;4973380;28;20039;-49
2023/07/16 00:26:00;;;;;;;7.15;4.13;;;;;;;;;;4971566;28;20046;-50
2023/07/16 00:28:26;;;;;;;10.75;4.50;;;;;;;;;;4978280;28;20039;-51
2023/07/16 00:30:51;;;;;;;13.90;5.22;;;;;;;;;;4973067;28;20083;-50
2023/07/16 00:33:16;;;;;;;14.52;4.95;;;;;;;;;;4972410;28;20497;-51
2023/07/16 00:35:49;;;;;;;16.63;5.20;;;;;;;;;;4973576;28;20063;-52
2023/07/16 00:38:17;;;;;;;14.30;4.68;;;;;;;;;;4963900;28;20043;-51
2023/07/16 00:40:42;;;;;;;15.05;5.18;;;;;;;;;;4974115;28;20018;-51
2023/07/16 00:43:08;;;;;;;14.75;6.32;;;;;;;;;;4978581;28;20073;-53
2023/07/16 00:45:33;;;;;;;13.40;4.88;;;;;;;;;;4978040;28;20034;-50
2023/07/16 00:47:58;;;;;;;13.05;4.20;;;;;;;;;;4969463;28;20122;-52
2023/07/16 00:50:24;;;;;;;7.55;4.22;;;;;;;;;;4974433;28;20109;-52
2023/07/16 00:52:49;;;;;;;10.23;4.30;;;;;;;;;;4975311;28;20038;-49
2023/07/16 00:55:15;;;;;;;12.35;4.82;;;;;;;;;;4975104;28;20027;-46
2023/07/16 00:57:41;;;;;;;11.18;4.55;;;;;;;;;;4976372;28;20090;-49
2023/07/16 01:00:07;;;;;;;13.55;5.03;;;;;;;;;;4971714;28;20031;-50
2023/07/16 01:02:33;;;;;;;11.73;4.93;;;;;;;;;;4959611;28;20105;-48
2023/07/16 01:04:59;;;;;;;10.43;4.55;;;;;;;;;;4977089;28;20437;-50
2023/07/16 01:07:26;;;;;;;11.38;4.68;;;;;;;;;;4972682;28;20062;-53
2023/07/16 01:09:54;;;;;;;10.45;5.10;;;;;;;;;;4975309;28;20038;-50
2023/07/16 01:12:22;;;;;;;8.60;4.43;;;;;;;;;;4974033;28;20027;-50
2023/07/16 01:14:48;;;;;;;13.82;5.40;;;;;;;;;;4974931;28;20073;-48
2023/07/16 01:17:13;;;;;;;9.23;4.40;;;;;;;;;;4969000;28;20028;-49
2023/07/16 01:19:38;;;;;;;11.07;5.07;;;;;;;;;;4953580;28;20593;-50
2023/07/16 01:22:25;;;;;;;9.82;4.45;;;;;;;;;;4976175;28;20042;-49
2023/07/16 01:25:05;;;;;;;23.00;5.43;;;;;;;;;;4974505;28;20054;-50
2023/07/16 01:28:00;;;;;;;15.15;5.07;;;;;;;;;;4963677;28;20023;-47
2023/07/16 01:30:27;;;;;;;11.10;5.05;;;;;;;;;;4970972;28;20116;-51
2023/07/16 01:32:53;;;;;;;15.68;4.60;;;;;;;;;;4968902;28;20531;-50
2023/07/16 01:35:19;;;;;;;10.98;4.65;;;;;;;;;;4970638;28;20039;-49
2023/07/16 01:37:45;;;;;;;9.70;4.75;;;;;;;;;;4964885;28;21468;-50
2023/07/16 01:40:11;;;;;;;13.85;4.80;;;;;;;;;;4968782;28;20027;-51
2023/07/16 01:42:36;;;;;;;17.48;4.85;;;;;;;;;;4968665;28;20049;-49
2023/07/16 01:45:02;;;;;;;14.30;5.07;;;;;;;;;;4977473;28;20065;-54
2023/07/16 01:47:44;;;;;;;12.38;4.80;;;;;;;;;;4961725;28;20093;-50
2023/07/16 01:50:10;;;;;;;21.70;5.15;;;;;;;;;;4987026;28;20022;-53
2023/07/16 01:52:35;;;;;;;9.30;5.13;;;;;;;;;;4987441;28;20050;-49
2023/07/16 01:55:01;;;;;;;9.43;4.85;;;;;;;;;;4986857;28;20041;-51
2023/07/16 01:57:26;;;;;;;14.43;5.28;;;;;;;;;;4989610;28;20026;-51
2023/07/16 01:59:51;;;;;;;10.35;4.57;;;;;;;;;;4987613;28;20030;-53
2023/07/16 02:02:17;;;;;;;11.20;5.25;;;;;;;;;;4988590;28;20034;-49
2023/07/16 02:04:42;;;;;;;11.10;4.85;;;;;;;;;;4991189;28;20034;-48
2023/07/16 02:07:08;;;;;;;13.70;5.30;;;;;;;;;;4995573;28;20118;-50
2023/07/16 02:09:34;;;;;;;10.27;4.50;;;;;;;;;;4986623;28;20041;-51
2023/07/16 02:11:59;;;;;;;9.25;4.38;;;;;;;;;;4988661;28;20109;-51
2023/07/16 02:14:25;;;;;;;9.90;4.57;;;;;;;;;;4992703;28;20066;-50
2023/07/16 02:16:50;;;;;;;11.77;4.78;;;;;;;;;;4988780;28;20035;-52
2023/07/16 02:19:15;;;;;;;10.00;4.82;;;;;;;;;;4976758;28;20043;-53
2023/07/16 02:21:41;;;;;;;12.57;5.25;;;;;;;;;;4970520;28;20050;-52
2023/07/16 02:24:06;;;;;;;17.63;5.20;;;;;;;;;;4976109;28;20500;-51
2023/07/16 02:26:31;;;;;;;11.32;4.85;;;;;;;;;;4967334;28;20529;-48
2023/07/16 02:28:59;;;;;;;10.85;4.78;;;;;;;;;;4974521;28;20043;-48
2023/07/16 02:31:24;;;;;;;10.15;4.75;;;;;;;;;;4970542;28;20027;-52
2023/07/16 02:33:49;;;;;;;14.45;5.20;;;;;;;;;;4983845;28;20092;-52
2023/07/16 02:36:15;;;;;;;14.48;5.68;;;;;;;;;;4995646;28;20495;-49
2023/07/16 02:38:40;;;;;;;11.20;4.88;;;;;;;;;;4995528;28;20696;-51
2023/07/16 02:41:06;;;;;;;10.02;4.97;;;;;;;;;;4995698;28;20102;-50
2023/07/16 02:43:31;;;;;;;12.35;4.35;;;;;;;;;;4995050;28;20515;-52
2023/07/16 02:45:56;;;;;;;14.57;5.05;;;;;;;;;;4992294;28;20350;-52
2023/07/16 02:48:22;;;;;;;14.38;4.78;;;;;;;;;;4984434;28;20118;-50
2023/07/16 02:50:47;;;;;;;9.07;4.55;;;;;;;;;;4991961;28;20034;-52
2023/07/16 02:53:13;;;;;;;11.48;4.88;;;;;;;;;;4986469;28;20045;-51
2023/07/16 02:55:38;;;;;;;10.68;4.70;;;;;;;;;;4994924;28;20045;-52
2023/07/16 02:58:04;;;;;;;11.13;5.93;;;;;;;;;;4981403;28;20462;-53
2023/07/16 03:00:33;;;;;;;11.00;4.63;;;;;;;;;;4993295;28;20090;-50
2023/07/16 03:02:59;;;;;;;9.77;4.63;;;;;;;;;;4986576;28;20030;-51
2023/07/16 03:05:26;;;;;;;16.60;5.20;;;;;;;;;;4989128;28;20023;-52
2023/07/16 03:07:51;;;;;;;10.50;4.93;;;;;;;;;;4986403;28;20043;-53
2023/07/16 03:10:17;;;;;;;20.13;6.18;;;;;;;;;;4992671;28;20036;-52
2023/07/16 03:12:42;;;;;;;14.32;5.03;;;;;;;;;;4990306;28;20064;-51
2023/07/16 03:15:08;;;;;;;12.10;5.32;;;;;;;;;;4992375;28;20034;-51
2023/07/16 03:17:34;;;;;;;14.95;4.93;;;;;;;;;;4972179;28;20050;-53
2023/07/16 03:19:59;;;;;;;11.95;5.22;;;;;;;;;;4989598;28;20030;-51
2023/07/16 03:22:24;;;;;;;11.23;5.63;;;;;;;;;;4992294;28;20109;-48
2023/07/16 03:24:50;;;;;;;11.82;4.90;;;;;;;;;;4993386;28;20058;-50
2023/07/16 03:27:16;;;;;;;19.02;5.00;;;;;;;;;;4993150;28;20030;-53
2023/07/16 03:29:42;;;;;;;11.48;5.05;;;;;;;;;;4994733;28;20081;-51
2023/07/16 03:32:07;;;;;;;14.25;5.22;;;;;;;;;;4985439;28;20038;-52
2023/07/16 03:34:33;;;;;;;10.48;4.70;;;;;;;;;;4994054;28;20055;-50
2023/07/16 03:36:58;;;;;;;15.50;5.22;;;;;;;;;;4991791;28;20336;-53
2023/07/16 03:39:24;;;;;;;15.05;4.60;;;;;;;;;;4982269;28;20074;-49
2023/07/16 03:41:49;;;;;;;13.98;4.53;;;;;;;;;;4979480;28;20616;-49
2023/07/16 03:44:14;;;;;;;14.23;5.13;;;;;;;;;;4989081;28;20039;-50
2023/07/16 03:46:40;;;;;;;11.52;4.95;;;;;;;;;;4994717;28;20018;-52
2023/07/16 03:49:08;;;;;;;10.48;5.00;;;;;;;;;;4993725;28;20038;-48
2023/07/16 03:51:34;;;;;;;11.05;5.18;;;;;;;;;;5013308;28;20026;-49
2023/07/16 03:54:00;;;;;;;11.85;5.45;;;;;;;;;;4997044;28;20066;-51
2023/07/16 03:56:25;;;;;;;16.40;4.38;;;;;;;;;;4995132;28;20109;-49
2023/07/16 03:58:50;;;;;;;11.40;4.55;;;;;;;;;;4983299;28;20135;-50
2023/07/16 04:01:16;;;;;;;17.73;5.80;;;;;;;;;;4995053;28;20092;-50
2023/07/16 04:03:41;;;;;;;11.70;4.57;;;;;;;;;;4989327;28;20573;-53
2023/07/16 04:06:11;;;;;;;18.17;4.82;;;;;;;;;;5008743;28;20032;-51
2023/07/16 04:08:37;;;;;;;18.17;5.10;;;;;;;;;;4992072;28;20034;-51
2023/07/16 04:11:06;;;;;;;11.25;4.72;;;;;;;;;;4994795;28;20044;-50
2023/07/16 04:13:31;;;;;;;16.08;5.53;;;;;;;;;;4994605;28;20050;-53
2023/07/16 04:15:57;;;;;;;13.75;4.75;;;;;;;;;;4992777;28;20056;-52
2023/07/16 04:18:23;;;;;;;11.50;4.60;;;;;;;;;;4992610;28;20039;-51
2023/07/16 04:20:49;;;;;;;11.20;4.80;;;;;;;;;;4997469;28;20118;-51
2023/07/16 04:23:15;;;;;;;10.93;4.82;;;;;;;;;;4994405;28;20066;-51
2023/07/16 04:25:40;;;;;;;8.30;4.78;;;;;;;;;;4985755;28;20046;-53
2023/07/16 04:28:06;;;;;;;14.80;5.65;;;;;;;;;;4995360;28;20046;-51
2023/07/16 04:30:31;;;;;;;13.00;5.25;;;;;;;;;;4995841;28;20526;-49
2023/07/16 04:32:57;;;;;;;15.70;5.30;;;;;;;;;;4995582;28;20035;-49
2023/07/16 04:35:22;;;;;;;12.27;4.95;;;;;;;;;;4994829;28;20046;-50
2023/07/16 04:37:47;;;;;;;13.23;4.88;;;;;;;;;;4997202;28;20087;-54
2023/07/16 04:40:13;;;;;;;9.10;4.85;;;;;;;;;;4994589;28;20034;-52
2023/07/16 04:42:38;;;;;;;9.85;4.78;;;;;;;;;;4980767;28;20054;-54
2023/07/16 04:45:05;;;;;;;19.77;5.60;;;;;;;;;;4994182;28;20023;-52
2023/07/16 04:47:30;;;;;;;11.93;4.93;;;;;;;;;;4992304;28;20022;-52
2023/07/16 04:49:58;;;;;;;13.68;4.78;;;;;;;;;;4996157;28;20088;-52
2023/07/16 04:52:23;;;;;;;9.77;5.00;;;;;;;;;;4984383;28;20476;-52
2023/07/16 04:54:49;;;;;;;14.88;5.07;;;;;;;;;;4996087;28;20097;-53
2023/07/16 04:57:14;;;;;;;10.55;5.05;;;;;;;;;;4987335;28;20030;-51
2023/07/16 04:59:40;;;;;;;13.15;4.88;;;;;;;;;;4989927;28;20941;-54
2023/07/16 05:02:06;;;;;;;19.73;5.88;;;;;;;;;;4987844;28;20030;-53
2023/07/16 05:04:32;;;;;;;10.57;5.45;;;;;;;;;;4993029;28;20034;-53
2023/07/16 05:06:58;;;;;;;12.60;5.60;;;;;;;;;;4990319;28;20034;-53
2023/07/16 05:09:23;;;;;;;15.55;5.43;;;;;;;;;;4994134;28;20444;-50
2023/07/16 05:11:49;;;;;;;8.57;5.40;;;;;;;;;;4989371;28;20035;-50
2023/07/16 05:14:14;;;;;;;10.13;5.60;;;;;;;;;;4989344;28;20042;-53
2023/07/16 05:16:39;;;;;;;14.02;5.57;;;;;;;;;;4993016;28;20084;-53
2023/07/16 05:19:05;;;;;;;13.13;5.18;;;;;;;;;;4997264;28;20038;-52
2023/07/16 05:21:30;;;;;;;19.65;5.35;;;;;;;;;;4979155;28;20717;-50
2023/07/16 05:23:56;;;;;;;18.50;5.65;;;;;;;;;;4967232;28;20389;-53
2023/07/16 05:26:21;;;;;;;13.07;5.22;;;;;;;;;;4995930;28;20504;-52
2023/07/16 05:28:46;;;;;;;12.50;4.97;;;;;;;;;;4959967;28;20043;-52
2023/07/16 05:31:12;;;;;;;14.80;4.53;;;;;;;;;;4973921;28;20034;-50
2023/07/16 05:33:37;;;;;;;16.17;5.20;;;;;;;;;;4993397;28;20045;-51
2023/07/16 05:36:03;;;;;;;10.88;4.90;;;;;;;;;;4995655;28;20034;-53
2023/07/16 05:38:28;;;;;;;10.27;4.70;;;;;;;;;;4976934;28;20046;-50
2023/07/16 05:41:00;;;;;;;8.95;5.07;;;;;;;;;;4984858;28;20027;-52
2023/07/16 05:43:26;;;;;;;10.88;5.35;;;;;;;;;;4990380;28;20374;-53
2023/07/16 05:45:51;;;;;;;12.95;5.13;;;;;;;;;;4979690;28;20100;-51
2023/07/16 05:48:16;;;;;;;11.38;5.28;;;;;;;;;;4993950;28;20046;-52
2023/07/16 05:50:44;;;;;;;10.43;5.28;;;;;;;;;;4993650;28;20118;-51
2023/07/16 05:53:10;;;;;;;16.25;5.88;;;;;;;;;;4981547;28;20043;-50
2023/07/16 05:55:35;;;;;;;11.80;5.43;;;;;;;;;;4992384;28;20057;-52
2023/07/16 05:58:01;;;;;;;14.82;5.72;;;;;;;;;;4988877;28;20059;-50
2023/07/16 06:00:26;;;;;;;16.02;5.55;;;;;;;;;;4989827;28;20061;-51
2023/07/16 06:02:51;;;;;;;13.13;6.93;;;;;;;;;;4979236;28;20403;-51
2023/07/16 06:05:17;;;;;;;10.63;5.93;;;;;;;;;;4991140;28;20026;-54
2023/07/16 06:07:43;;;;;;;17.92;6.15;;;;;;;;;;4990185;28;20042;-50
2023/07/16 06:10:08;;;;;;;13.75;5.97;;;;;;;;;;4976330;28;20079;-53
2023/07/16 06:12:34;;;;;;;11.15;5.70;;;;;;;;;;4976551;28;20035;-49
2023/07/16 06:15:00;;;;;;;14.32;6.25;;;;;;;;;;4989531;28;20093;-50
2023/07/16 06:17:25;;;;;;;14.95;6.43;;;;;;;;;;4993376;28;20030;-49
2023/07/16 06:19:51;;;;;;;12.45;6.60;;;;;;;;;;4995596;28;20065;-51
2023/07/16 06:22:17;;;;;;;13.32;6.40;;;;;;;;;;4993693;28;20072;-49
2023/07/16 06:24:43;;;;;;;13.45;5.97;;;;;;;;;;4994306;28;20026;-50
2023/07/16 06:27:08;;;;;;;16.67;6.47;;;;;;;;;;4995223;28;20022;-49
2023/07/16 06:29:33;;;;;;;14.10;6.18;;;;;;;;;;4990036;28;20043;-54
2023/07/16 06:31:59;;;;;;;13.82;6.78;;;;;;;;;;4993708;28;20058;-52
2023/07/16 06:34:25;;;;;;;13.13;6.07;;;;;;;;;;4990550;28;20047;-49
2023/07/16 06:36:50;;;;;;;15.93;5.88;;;;;;;;;;4995983;28;20058;-52
2023/07/16 06:39:16;;;;;;;12.55;6.07;;;;;;;;;;4986204;28;20045;-50
2023/07/16 06:41:41;;;;;;;11.38;5.47;;;;;;;;;;4994560;28;20026;-53
2023/07/16 06:44:07;;;;;;;12.55;6.32;;;;;;;;;;4985192;28;20066;-52
2023/07/16 06:46:32;;;;;;;13.55;5.80;;;;;;;;;;4994744;28;20491;-49
2023/07/16 06:48:58;;;;;;;14.95;5.53;;;;;;;;;;4991332;28;20057;-51
2023/07/16 06:51:23;;;;;;;14.23;6.22;;;;;;;;;;4979059;28;20033;-51
2023/07/16 06:53:49;;;;;;;11.27;6.18;;;;;;;;;;4993095;28;20030;-48
2023/07/16 06:56:14;;;;;;;19.42;6.43;;;;;;;;;;4985846;28;20030;-51
2023/07/16 06:58:40;;;;;;;12.45;6.45;;;;;;;;;;4989372;28;20039;-53
2023/07/16 07:01:05;;;;;;;13.70;6.85;;;;;;;;;;4993063;28;20053;-51
2023/07/16 07:03:33;;;;;;;13.02;6.68;;;;;;;;;;4994988;28;20078;-50
2023/07/16 07:06:01;;;;;;;11.50;6.35;;;;;;;;;;4991276;28;20101;-52
2023/07/16 07:08:26;;;;;;;14.43;7.03;;;;;;;;;;4984045;28;20039;-52
2023/07/16 07:10:52;;;;;;;14.77;6.85;;;;;;;;;;4994788;28;20045;-51
2023/07/16 07:13:17;;;;;;;12.40;6.30;;;;;;;;;;4976140;28;20073;-49
2023/07/16 07:15:43;;;;;;;10.35;5.53;;;;;;;;;;4987698;28;20042;-53
2023/07/16 07:18:08;;;;;;;12.18;6.20;;;;;;;;;;4988252;28;20039;-51
2023/07/16 07:20:33;;;;;;;14.30;6.45;;;;;;;;;;4993983;28;20061;-51
2023/07/16 07:23:02;;;;;;;16.35;6.20;;;;;;;;;;4983351;28;20484;-51
2023/07/16 07:25:27;;;;;;;10.38;6.20;;;;;;;;;;4996073;28;20022;-49
2023/07/16 07:27:53;;;;;;;11.25;6.20;;;;;;;;;;4988899;28;20047;-48
2023/07/16 07:30:18;;;;;;;15.82;6.43;;;;;;;;;;4999647;28;20033;-53
2023/07/16 07:32:45;;;;;;;14.48;6.50;;;;;;;;;;4996434;28;20049;-49
2023/07/16 07:35:10;;;;;;;14.15;6.10;;;;;;;;;;4987536;28;20117;-49
2023/07/16 07:37:35;;;;;;;16.42;7.00;;;;;;;;;;4992474;28;20062;-50
2023/07/16 07:40:02;;;;;;;11.70;6.20;;;;;;;;;;4997438;28;20026;-48
2023/07/16 07:42:28;;;;;;;14.73;6.63;;;;;;;;;;4996162;28;20423;-52
2023/07/16 07:44:54;;;;;;;15.05;5.65;;;;;;;;;;4994196;28;20072;-51
2023/07/16 07:47:19;;;;;;;9.00;5.30;;;;;;;;;;4998961;28;20026;-48
2023/07/16 07:49:44;;;;;;;14.70;5.47;;;;;;;;;;4998126;28;20034;-50
2023/07/16 07:52:10;;;;;;;12.45;5.72;;;;;;;;;;4980422;28;20029;-50
2023/07/16 07:54:35;;;;;;;8.32;5.25;;;;;;;;;;4993471;28;20129;-48
2023/07/16 07:57:04;;;;;;;13.52;5.15;;;;;;;;;;4993145;28;20098;-52
2023/07/16 07:59:31;;;;;;;9.50;4.97;;;;;;;;;;4990338;28;20049;-48
2023/07/16 08:01:57;;;;;;;10.85;5.07;;;;;;;;;;4987185;28;20073;-51
2023/07/16 08:04:23;;;;;;;9.85;4.55;;;;;;;;;;4987321;28;20073;-50
2023/07/16 08:06:50;;;;;;;8.85;4.63;;;;;;;;;;5004364;28;20057;-51
2023/07/16 08:09:16;;;;;;;17.85;5.32;;;;;;;;;;4998250;28;20094;-49
2023/07/16 08:11:41;;;;;;;12.80;4.78;;;;;;;;;;4997896;28;20057;-49
2023/07/16 08:14:07;;;;;;;10.55;5.40;;;;;;;;;;4990973;28;20043;-50
2023/07/16 08:16:32;;;;;;;8.02;4.55;;;;;;;;;;4996091;28;20030;-49
2023/07/16 08:18:57;;;;;;;16.02;4.88;;;;;;;;;;4997942;28;20073;-48
2023/07/16 08:21:23;;;;;;;8.60;4.40;;;;;;;;;;4998523;28;20057;-50
2023/07/16 08:23:49;;;;;;;7.65;4.30;;;;;;;;;;4995343;28;20039;-49
2023/07/16 08:26:15;;;;;;;8.95;4.82;;;;;;;;;;4995534;28;20018;-49
2023/07/16 08:28:41;;;;;;;10.10;4.90;;;;;;;;;;4997336;28;20048;-50
2023/07/16 08:31:06;;;;;;;11.57;4.50;;;;;;;;;;4979279;28;20027;-49
2023/07/16 08:33:31;;;;;;;10.07;4.43;;;;;;;;;;4994978;28;20041;-52
2023/07/16 08:35:57;;;;;;;7.63;3.95;;;;;;;;;;4995798;28;20077;-47
2023/07/16 08:38:22;;;;;;;11.20;5.05;;;;;;;;;;4997452;28;20133;-51
2023/07/16 08:40:51;;;;;;;12.25;4.30;;;;;;;;;;4997592;28;20500;-49
2023/07/16 08:43:16;;;;;;;8.50;4.35;;;;;;;;;;4998068;28;20035;-50
2023/07/16 08:45:44;;;;;;;8.02;4.47;;;;;;;;;;4991767;28;20069;-53
2023/07/16 08:48:10;;;;;;;8.32;4.10;;;;;;;;;;4996293;28;20121;-49
2023/07/16 08:50:37;;;;;;;8.55;4.43;;;;;;;;;;4997925;28;20022;-49
2023/07/16 08:53:06;;;;;;;11.18;4.13;;;;;;;;;;4995090;28;20031;-51
2023/07/16 08:55:32;;;;;;;10.23;4.63;;;;;;;;;;4992909;28;20038;-53
2023/07/16 08:57:58;;;;;;;8.10;4.13;;;;;;;;;;4997495;28;20049;-51
2023/07/16 09:00:26;;;;;;;7.90;4.65;;;;;;;;;;4996118;28;20042;-52
2023/07/16 09:02:55;;;;;;;10.05;5.28;;;;;;;;;;4988727;28;20109;-49
2023/07/16 09:05:22;;;;;;;12.48;4.60;;;;;;;;;;4996223;28;20520;-46
2023/07/16 09:07:48;;;;;;;6.75;4.50;;;;;;;;;;4995375;28;20038;-51
2023/07/16 09:10:14;;;;;;;17.33;4.95;;;;;;;;;;4993295;28;20081;-48
2023/07/16 09:12:43;;;;;;;9.48;4.70;;;;;;;;;;4992961;28;20092;-49
2023/07/16 09:15:09;;;;;;;10.93;5.07;;;;;;;;;;4991004;28;20492;-52
2023/07/16 09:17:37;;;;;;;10.77;4.90;;;;;;;;;;4994480;28;20041;-50
2023/07/16 09:20:03;;;;;;;8.57;4.80;;;;;;;;;;4992652;28;20161;-52
2023/07/16 09:22:29;;;;;;;7.60;4.35;;;;;;;;;;4997259;28;20041;-46
2023/07/16 09:24:56;;;;;;;9.32;4.72;;;;;;;;;;4996180;28;20034;-48
2023/07/16 09:27:28;;;;;;;10.98;4.88;;;;;;;;;;4988109;28;20026;-52
2023/07/16 09:29:54;;;;;;;10.77;4.82;;;;;;;;;;4990264;28;20034;-47
2023/07/16 09:32:19;;;;;;;10.60;4.35;;;;;;;;;;4994881;28;20342;-51
2023/07/16 09:34:45;;;;;;;10.30;4.15;;;;;;;;;;4993608;28;20050;-50
2023/07/16 09:37:10;;;;;;;8.07;3.78;;;;;;;;;;4996126;28;20490;-51
2023/07/16 09:39:37;;;;;;;8.88;3.92;;;;;;;;;;4991247;28;20039;-47
2023/07/16 09:42:03;;;;;;;9.68;4.43;;;;;;;;;;4992964;28;20548;-51
2023/07/16 09:44:29;;;;;;;8.27;4.32;;;;;;;;;;4991349;28;20077;-50
2023/07/16 09:46:55;;;;;;;10.93;4.50;;;;;;;;;;4994193;28;20022;-48
2023/07/16 09:49:20;;;;;;;13.05;4.10;;;;;;;;;;4990742;28;20046;-50
2023/07/16 09:51:47;;;;;;;11.75;4.72;;;;;;;;;;4993893;28;20022;-51
2023/07/16 09:54:17;;;;;;;8.63;4.25;;;;;;;;;;4995899;28;20132;-50
2023/07/16 09:56:50;;;;;;;13.20;4.55;;;;;;;;;;4996125;28;20027;-47
2023/07/16 09:59:19;;;;;;;6.22;4.35;;;;;;;;;;4995620;28;20036;-49
2023/07/16 10:01:45;;;;;;;11.48;4.53;;;;;;;;;;4989096;28;20035;-50
2023/07/16 10:04:15;;;;;;;8.48;4.00;;;;;;;;;;4989768;28;20034;-46
2023/07/16 10:07:00;;;;;;;8.70;4.22;;;;;;;;;;4999631;28;20025;-50
2023/07/16 10:09:42;;;;;;;7.35;3.92;;;;;;;;;;4991747;28;20042;-53
2023/07/16 10:12:11;;;;;;;12.57;3.75;;;;;;;;;;4980712;28;20101;-48
2023/07/16 10:14:41;;;;;;;13.38;4.40;;;;;;;;;;4989723;28;20090;-50
2023/07/16 10:17:06;;;;;;;10.45;4.00;;;;;;;;;;4983391;28;20050;-48
2023/07/16 10:19:49;;;;;;;6.78;4.10;;;;;;;;;;4988046;28;20034;-51
2023/07/16 10:22:15;;;;;;;9.77;3.97;;;;;;;;;;4992254;28;20044;-47
2023/07/16 10:24:40;;;;;;;14.52;4.22;;;;;;;;;;4996101;28;20034;-49
2023/07/16 10:27:06;;;;;;;9.50;4.10;;;;;;;;;;4989182;28;20074;-49
2023/07/16 10:29:31;;;;;;;8.52;4.15;;;;;;;;;;4980926;28;20050;-46
2023/07/16 10:31:58;;;;;;;7.05;3.75;;;;;;;;;;4996794;28;20145;-48
2023/07/16 10:34:25;;;;;;;12.15;4.28;;;;;;;;;;4987576;28;20078;-49
2023/07/16 10:36:50;;;;;;;12.45;5.00;;;;;;;;;;4993706;28;20400;-52
2023/07/16 10:39:16;;;;;;;10.18;4.38;;;;;;;;;;4983218;28;20034;-51
2023/07/16 10:41:41;;;;;;;8.95;4.38;;;;;;;;;;4990149;28;20035;-52
2023/07/16 10:44:15;;;;;;;12.45;4.40;;;;;;;;;;5001578;28;20330;-45
2023/07/16 10:46:44;;;;;;;10.15;4.20;;;;;;;;;;4984592;28;20045;-48
2023/07/16 10:49:09;;;;;;;10.32;4.53;;;;;;;;;;4995331;28;20043;-50
2023/07/16 10:51:35;;;;;;;14.40;5.05;;;;;;;;;;4988364;28;20032;-50
2023/07/16 10:54:05;;;;;;;10.85;5.03;;;;;;;;;;4990086;28;20103;-50
2023/07/16 10:56:35;;;;;;;13.00;5.38;;;;;;;;;;4994875;28;20495;-52
2023/07/16 10:59:01;;;;;;;11.95;5.70;;;;;;;;;;4992218;28;20554;-50
2023/07/16 11:01:29;;;;;;;11.88;5.40;;;;;;;;;;4989200;28;20457;-51
2023/07/16 11:04:01;;;;;;;11.48;4.82;;;;;;;;;;4976360;28;20034;-49
2023/07/16 11:06:26;;;;;;;;;;;;;;;;;;4987268;28;20030;-49
2023/07/16 11:08:51;;;;;;;14.82;4.97;;;;;;;;;;4995302;28;19924;-45
2023/07/16 11:11:27;;;;;;;8.88;5.43;;;;;;;;;;4989224;28;20034;-46
2023/07/16 11:13:53;;;;;;;12.02;5.18;;;;;;;;;;4990228;28;20093;-51
2023/07/16 11:16:18;;;;;;;10.23;4.93;;;;;;;;;;4987366;28;20038;-49
2023/07/16 11:18:44;;;;;;;10.57;4.65;;;;;;;;;;4988583;28;20180;-48
2023/07/16 11:21:09;;;;;;;7.25;4.60;;;;;;;;;;4992207;28;20050;-52
2023/07/16 11:23:35;;;;;;;7.50;4.18;;;;;;;;;;4994725;28;20027;-49
2023/07/16 11:26:02;;;;;;;13.23;4.88;;;;;;;;;;4993702;28;20041;-47
2023/07/16 11:28:39;;;;;;;10.05;4.40;;;;;;;;;;4993672;28;20404;-49
2023/07/16 11:31:14;;;;;;;6.78;4.28;;;;;;;;;;4988276;28;20488;-47
2023/07/16 11:33:44;;;;;;;11.25;4.18;;;;;;;;;;4993946;28;20031;-46
2023/07/16 11:36:10;;;;;;;6.68;4.85;;;;;;;;;;4993996;28;20485;-50
2023/07/16 11:38:39;;;;;;;7.93;4.10;;;;;;;;;;4989877;28;20188;-50
2023/07/16 11:41:05;;;;;;;10.15;4.57;;;;;;;;;;4991018;28;20384;-51
2023/07/16 11:43:37;;;;;;;12.65;5.13;;;;;;;;;;4994848;28;20045;-46
2023/07/16 11:46:05;;;;;;;14.77;5.45;;;;;;;;;;4985260;28;20065;-51
2023/07/16 11:48:30;;;;;;;8.60;4.60;;;;;;;;;;5007102;28;20042;-47
2023/07/16 11:50:56;;;;;;;10.55;4.45;;;;;;;;;;4984384;28;20022;-46
2023/07/16 11:53:21;;;;;;;8.93;4.85;;;;;;;;;;4992439;28;20050;-50
2023/07/16 11:55:46;;;;;;;11.98;5.18;;;;;;;;;;4992250;28;20045;-51
2023/07/16 11:58:12;;;;;;;9.00;4.57;;;;;;;;;;4993881;28;20575;-50
2023/07/16 12:00:37;;;;;;;11.32;4.22;;;;;;;;;;4982108;28;20613;-53
2023/07/16 12:03:03;;;;;;;12.27;4.70;;;;;;;;;;4993115;28;20114;-52
2023/07/16 12:05:28;;;;;;;9.35;5.40;;;;;;;;;;4993286;28;20030;-51
2023/07/16 12:07:54;;;;;;;10.40;5.45;;;;;;;;;;4994190;28;20042;-50
2023/07/16 12:10:20;;;;;;;9.35;4.82;;;;;;;;;;4989108;28;20030;-51
2023/07/16 12:12:46;;;;;;;10.52;4.57;;;;;;;;;;4993617;28;20041;-47
2023/07/16 12:15:12;;;;;;;9.07;4.63;;;;;;;;;;4995756;28;20034;-48
2023/07/16 12:17:37;;;;;;;12.73;6.13;;;;;;;;;;4989462;28;20094;-51
2023/07/16 12:20:04;;;;;;;7.68;5.32;;;;;;;;;;4989371;28;20053;-48
2023/07/16 12:22:29;;;;;;;12.77;5.28;;;;;;;;;;4987711;28;20034;-49
2023/07/16 12:24:55;;;;;;;10.02;4.75;;;;;;;;;;4993907;28;20041;-50
2023/07/16 12:27:21;;;;;;;11.45;4.57;;;;;;;;;;4989594;28;20026;-51
2023/07/16 12:29:46;;;;;;;11.27;5.22;;;;;;;;;;4981977;28;20026;-48
2023/07/16 12:32:13;;;;;;;11.57;5.15;;;;;;;;;;4995571;28;20030;-50
2023/07/16 12:34:39;;;;;;;7.45;4.50;;;;;;;;;;4989482;28;20049;-51
2023/07/16 12:37:05;;;;;;;18.90;5.28;;;;;;;;;;4969278;28;20038;-52
2023/07/16 12:39:30;;;;;;;12.43;4.82;;;;;;;;;;4996021;28;20042;-50
2023/07/16 12:41:55;;;;;;;8.20;4.18;;;;;;;;;;4974633;28;20026;-50
2023/07/16 12:44:21;;;;;;;8.02;4.55;;;;;;;;;;4987890;28;20503;-52
2023/07/16 12:46:46;;;;;;;12.30;4.72;;;;;;;;;;4989254;28;20027;-51
2023/07/16 12:49:12;;;;;;;8.50;4.35;;;;;;;;;;4978392;28;20042;-48
2023/07/16 12:51:38;;;;;;;8.85;4.63;;;;;;;;;;4998028;28;20114;-49
2023/07/16 12:54:03;;;;;;;12.60;4.57;;;;;;;;;;4994990;28;20034;-48
2023/07/16 12:56:30;;;;;;;9.07;3.90;;;;;;;;;;4998319;28;20033;-46
2023/07/16 12:58:56;;;;;;;11.25;4.30;;;;;;;;;;4996254;28;20062;-50
2023/07/16 13:01:21;;;;;;;9.73;4.40;;;;;;;;;;4986557;28;20038;-49
2023/07/16 13:03:47;;;;;;;12.43;4.72;;;;;;;;;;4994762;28;20116;-49
2023/07/16 13:06:12;;;;;;;12.60;4.32;;;;;;;;;;4996497;28;20098;-49
2023/07/16 13:08:37;;;;;;;13.52;4.57;;;;;;;;;;4982199;28;20043;-48
2023/07/16 13:11:03;;;;;;;8.95;4.40;;;;;;;;;;4991028;28;20030;-51
2023/07/16 13:13:28;;;;;;;10.15;4.40;;;;;;;;;;4996106;28;20039;-51
2023/07/16 13:15:55;;;;;;;15.15;4.55;;;;;;;;;;4993466;28;20496;-48
2023/07/16 13:18:20;;;;;;;9.75;4.32;;;;;;;;;;4994104;28;20040;-47
2023/07/16 13:20:46;;;;;;;10.48;4.50;;;;;;;;;;4990502;28;20058;-50
2023/07/16 13:23:12;;;;;;;8.15;4.20;;;;;;;;;;4995847;28;20080;-53
2023/07/16 13:25:38;;;;;;;8.48;4.15;;;;;;;;;;4992810;28;20049;-49
2023/07/16 13:28:05;;;;;;;15.60;4.60;;;;;;;;;;4996732;28;20050;-51
2023/07/16 13:30:30;;;;;;;12.10;4.28;;;;;;;;;;4997716;28;20034;-52
2023/07/16 13:32:56;;;;;;;7.70;4.00;;;;;;;;;;4995430;28;20626;-52
2023/07/16 13:35:24;;;;;;;11.23;4.00;;;;;;;;;;4995205;28;20050;-49
2023/07/16 13:37:50;;;;;;;11.20;4.20;;;;;;;;;;4991066;28;20101;-49
2023/07/16 13:40:19;;;;;;;12.73;3.72;;;;;;;;;;4986085;28;20035;-50
2023/07/16 13:42:45;;;;;;;11.23;4.20;;;;;;;;;;4993252;28;20070;-52
2023/07/16 13:45:10;;;;;;;6.85;3.92;;;;;;;;;;4994319;28;20034;-48
2023/07/16 13:47:36;;;;;;;8.98;4.15;;;;;;;;;;4983462;28;20038;-50
2023/07/16 13:50:02;;;;;;;7.35;3.58;;;;;;;;;;4981909;28;20030;-48
2023/07/16 13:52:27;;;;;;;6.90;3.70;;;;;;;;;;4987904;28;20473;-49
2023/07/16 13:54:54;;;;;;;13.57;4.13;;;;;;;;;;4996083;28;20037;-49
2023/07/16 13:57:19;;;;;;;11.05;4.18;;;;;;;;;;5008549;28;20022;-47
2023/07/16 13:59:44;;;;;;;12.82;4.18;;;;;;;;;;4994647;28;20034;-50
2023/07/16 14:02:10;;;;;;;5.43;3.38;;;;;;;;;;4997474;28;20085;-50
2023/07/16 14:04:35;;;;;;;10.32;3.95;;;;;;;;;;4994600;28;20045;-47
2023/07/16 14:07:01;;;;;;;8.60;3.50;;;;;;;;;;4985574;28;20473;-52
2023/07/16 14:09:26;;;;;;;6.07;3.60;;;;;;;;;;4992324;28;20092;-51
2023/07/16 14:11:52;;;;;;;8.70;4.28;;;;;;;;;;4994808;28;20440;-48
2023/07/16 14:14:18;;;;;;;7.32;4.20;;;;;;;;;;4992868;28;20046;-52
2023/07/16 14:16:43;;;;;;;11.48;4.05;;;;;;;;;;4993616;28;20052;-48
2023/07/16 14:19:12;;;;;;;6.90;3.70;;;;;;;;;;4985636;28;20125;-49
2023/07/16 14:21:37;;;;;;;12.57;3.88;;;;;;;;;;4993982;28;20099;-51
2023/07/16 14:24:03;;;;;;;11.50;3.85;;;;;;;;;;4988260;28;20043;-48
2023/07/16 14:26:29;;;;;;;7.80;3.75;;;;;;;;;;4993237;28;20035;-51
2023/07/16 14:28:54;;;;;;;12.65;3.63;;;;;;;;;;4988283;28;20050;-51